Time;durP1;ratioP1;P1;durP2;ratioP2;P2;SDS_P1;SDS_P2;PMS_P1;PMS_P2;Temp;Humidity;BMP_temperature;BMP_pressure;BME280_temperature;BME280_humidity;BME280_pressure;Samples;Min_cycle;Max_cycle;Signal;HPM_P1;HPM_P2
2022/11/26 00:02:16;;;;;;;3.08;2.08;;;20.80;49.10;;;;;;5073450;28;20404;-51
2022/11/26 00:04:42;;;;;;;2.90;2.05;;;20.80;49.10;;;;;;5072910;28;20052;-52
2022/11/26 00:07:11;;;;;;;2.65;1.85;;;20.80;49.10;;;;;;5074673;28;20040;-49
2022/11/26 00:09:37;;;;;;;3.13;1.85;;;20.70;49.00;;;;;;5074352;28;20037;-51
2022/11/26 00:12:24;;;;;;;4.80;1.83;;;20.70;49.00;;;;;;5073865;28;20047;-52
2022/11/26 00:14:50;;;;;;;2.63;1.90;;;20.70;48.70;;;;;;5074324;28;20115;-49
2022/11/26 00:17:17;;;;;;;2.65;1.75;;;20.70;48.90;;;;;;5089703;28;20477;-49
2022/11/26 00:19:43;;;;;;;4.38;1.80;;;20.70;48.90;;;;;;5074336;28;20127;-51
2022/11/26 00:22:22;;;;;;;5.00;1.80;;;20.70;48.90;;;;;;5074218;28;20044;-51
2022/11/26 00:24:48;;;;;;;3.10;1.70;;;20.70;48.70;;;;;;5074742;28;20044;-52
2022/11/26 00:27:14;;;;;;;2.75;1.60;;;20.60;48.80;;;;;;5074109;28;20047;-50
2022/11/26 00:29:39;;;;;;;2.45;1.98;;;20.70;48.80;;;;;;5074938;28;20423;-51
2022/11/26 00:32:15;;;;;;;2.63;1.80;;;20.60;48.70;;;;;;5072806;28;20032;-51
2022/11/26 00:34:41;;;;;;;2.28;1.77;;;20.60;48.70;;;;;;5074565;28;20086;-51
2022/11/26 00:37:24;;;;;;;1.88;1.48;;;20.60;48.70;;;;;;5073698;28;20040;-51
2022/11/26 00:39:50;;;;;;;3.08;1.80;;;20.60;48.60;;;;;;5073725;28;20036;-50
2022/11/26 00:42:17;;;;;;;3.00;1.70;;;20.60;48.60;;;;;;5073008;28;20468;-52
2022/11/26 00:44:43;;;;;;;2.80;1.70;;;20.60;48.60;;;;;;5073624;28;20041;-50
2022/11/26 00:47:09;;;;;;;2.30;1.50;;;20.60;48.60;;;;;;5073264;28;20055;-51
2022/11/26 00:49:35;;;;;;;2.10;1.50;;;20.50;48.50;;;;;;5073834;28;20044;-51
2022/11/26 00:52:01;;;;;;;1.83;1.42;;;20.60;48.50;;;;;;5073769;28;20464;-48
2022/11/26 00:54:28;;;;;;;2.00;1.40;;;20.50;48.40;;;;;;5056608;28;20089;-51
2022/11/26 00:56:54;;;;;;;2.17;1.50;;;20.50;48.50;;;;;;5073782;28;20127;-51
2022/11/26 00:59:21;;;;;;;2.17;1.60;;;20.50;48.40;;;;;;5072501;28;20145;-51
2022/11/26 01:01:48;;;;;;;4.00;1.80;;;20.50;48.30;;;;;;5072436;28;20174;-50
2022/11/26 01:04:14;;;;;;;3.03;1.70;;;20.50;48.40;;;;;;5073385;28;20040;-51
2022/11/26 01:06:42;;;;;;;3.13;1.85;;;20.50;48.30;;;;;;5073638;28;20032;-51
2022/11/26 01:09:16;;;;;;;2.10;1.48;;;20.50;48.30;;;;;;5073657;28;20162;-49
2022/11/26 01:11:42;;;;;;;2.75;1.60;;;20.40;48.20;;;;;;5073647;28;20040;-49
2022/11/26 01:14:18;;;;;;;2.22;1.70;;;20.40;48.20;;;;;;5074137;28;20044;-51
2022/11/26 01:16:46;;;;;;;2.88;1.38;;;20.40;48.10;;;;;;5074210;28;20126;-51
2022/11/26 01:19:14;;;;;;;2.25;1.52;;;20.40;48.20;;;;;;5076807;28;20098;-51
2022/11/26 01:21:40;;;;;;;3.03;1.70;;;20.40;48.20;;;;;;5077662;28;20048;-55
2022/11/26 01:24:06;;;;;;;2.20;1.80;;;20.40;48.10;;;;;;5077533;28;20127;-51
2022/11/26 01:26:37;;;;;;;2.28;1.50;;;20.40;48.20;;;;;;5076535;28;20091;-51
2022/11/26 01:29:02;;;;;;;2.03;1.50;;;20.40;48.10;;;;;;5076592;28;20040;-52
2022/11/26 01:31:28;;;;;;;2.10;1.63;;;20.30;48.10;;;;;;5060735;28;20048;-50
2022/11/26 01:33:54;;;;;;;3.00;1.58;;;20.30;48.10;;;;;;5097362;28;20079;-51
2022/11/26 01:36:29;;;;;;;2.47;1.67;;;20.30;48.00;;;;;;5097561;28;20141;-49
2022/11/26 01:38:57;;;;;;;2.45;1.30;;;20.30;48.00;;;;;;5097193;28;20071;-51
2022/11/26 01:41:56;;;;;;;2.47;1.77;;;20.30;48.00;;;;;;5097221;28;20395;-48
2022/11/26 01:44:25;;;;;;;2.60;1.60;;;20.30;47.90;;;;;;5094574;28;20063;-51
2022/11/26 01:46:51;;;;;;;2.08;1.30;;;20.30;48.00;;;;;;5097874;28;20047;-51
2022/11/26 01:49:25;;;;;;;2.15;1.55;;;20.30;48.00;;;;;;5096176;28;20040;-48
2022/11/26 01:52:15;;;;;;;1.88;1.48;;;20.30;48.00;;;;;;5096089;28;20047;-48
2022/11/26 01:54:43;;;;;;;1.70;1.50;;;20.30;47.80;;;;;;5097306;28;20123;-50
2022/11/26 01:57:17;;;;;;;3.13;1.50;;;20.20;47.90;;;;;;5097249;28;20527;-50
2022/11/26 01:59:49;;;;;;;3.35;1.90;;;20.20;47.90;;;;;;5097734;28;20040;-51
2022/11/26 02:02:15;;;;;;;3.05;1.60;;;20.20;47.90;;;;;;5095863;28;20036;-50
2022/11/26 02:04:52;;;;;;;2.28;1.40;;;20.20;47.90;;;;;;5095907;28;20043;-50
2022/11/26 02:07:18;;;;;;;3.40;2.00;;;20.20;47.80;;;;;;5097068;28;20049;-51
2022/11/26 02:09:44;;;;;;;2.00;1.35;;;20.10;47.80;;;;;;5096955;28;20069;-52
2022/11/26 02:12:10;;;;;;;2.85;1.67;;;20.10;47.80;;;;;;5096876;28;20047;-51
2022/11/26 02:14:40;;;;;;;2.15;1.25;;;20.10;47.70;;;;;;5096548;28;20040;-51
2022/11/26 02:17:25;;;;;;;1.90;1.30;;;20.10;47.70;;;;;;5095873;28;20044;-51
2022/11/26 02:20:23;;;;;;;1.98;1.30;;;20.10;47.60;;;;;;5096557;28;20487;-51
2022/11/26 02:22:57;;;;;;;2.08;1.40;;;20.10;47.60;;;;;;5085855;28;20092;-51
2022/11/26 02:25:50;;;;;;;2.90;1.75;;;20.10;47.70;;;;;;5095495;28;20032;-50
2022/11/26 02:28:43;;;;;;;2.00;1.58;;;20.10;47.60;;;;;;5095257;28;20044;-49
2022/11/26 02:31:18;;;;;;;2.20;1.23;;;20.10;47.60;;;;;;5097145;28;20040;-49
2022/11/26 02:34:09;;;;;;;2.50;1.63;;;20.10;47.70;;;;;;5096564;28;20119;-48
2022/11/26 02:36:55;;;;;;;2.90;1.35;;;20.10;47.70;;;;;;5096586;28;20046;-51
2022/11/26 02:39:23;;;;;;;1.88;1.20;;;20.00;47.60;;;;;;5095765;28;20050;-49
2022/11/26 02:41:52;;;;;;;2.17;1.40;;;20.00;47.60;;;;;;5096271;28;20506;-51
2022/11/26 02:44:22;;;;;;;2.13;1.70;;;20.00;47.50;;;;;;5096295;28;20115;-49
2022/11/26 02:46:51;;;;;;;2.45;1.30;;;20.00;47.50;;;;;;5094974;28;20480;-51
2022/11/26 02:49:20;;;;;;;1.98;1.52;;;20.00;47.40;;;;;;5078399;28;20097;-52
2022/11/26 02:51:54;;;;;;;2.42;1.40;;;20.00;47.40;;;;;;5078326;28;20540;-51
2022/11/26 02:54:23;;;;;;;2.00;1.50;;;20.00;47.30;;;;;;5095117;28;20036;-51
2022/11/26 02:56:50;;;;;;;2.50;1.55;;;20.00;47.30;;;;;;5096089;28;20040;-50
2022/11/26 02:59:16;;;;;;;2.78;1.50;;;20.00;47.30;;;;;;5096061;28;20087;-51
2022/11/26 03:01:48;;;;;;;2.85;1.67;;;20.00;47.40;;;;;;5095882;28;20048;-52
2022/11/26 03:04:21;;;;;;;2.35;1.58;;;20.00;47.30;;;;;;5095650;28;20051;-48
2022/11/26 03:06:48;;;;;;;3.15;1.42;;;19.90;47.30;;;;;;5095922;28;20474;-49
2022/11/26 03:09:17;;;;;;;2.70;1.23;;;19.90;47.30;;;;;;5095914;28;20079;-50
2022/11/26 03:11:43;;;;;;;1.73;1.50;;;19.90;47.20;;;;;;5094285;28;20036;-50
2022/11/26 03:14:09;;;;;;;2.15;1.45;;;19.90;47.30;;;;;;5095641;28;20520;-52
2022/11/26 03:16:35;;;;;;;1.95;1.48;;;19.90;47.20;;;;;;5095692;28;20122;-51
2022/11/26 03:19:00;;;;;;;1.58;1.17;;;19.90;47.20;;;;;;5096148;28;20048;-50
2022/11/26 03:21:26;;;;;;;1.88;1.40;;;19.90;47.20;;;;;;5096035;28;20090;-50
2022/11/26 03:23:52;;;;;;;2.15;1.40;;;19.90;47.20;;;;;;5095568;28;20051;-51
2022/11/26 03:26:18;;;;;;;1.38;1.15;;;19.90;47.20;;;;;;5095514;28;20098;-51
2022/11/26 03:28:44;;;;;;;2.95;1.40;;;19.90;47.20;;;;;;5077686;28;20039;-49
2022/11/26 03:31:09;;;;;;;2.38;1.58;;;19.90;47.20;;;;;;5094403;28;20076;-52
2022/11/26 03:33:35;;;;;;;1.40;1.17;;;19.90;47.20;;;;;;5095909;28;20044;-51
2022/11/26 03:36:00;;;;;;;2.10;1.40;;;19.80;47.20;;;;;;5095839;28;20091;-48
2022/11/26 03:38:26;;;;;;;2.20;1.23;;;19.90;47.10;;;;;;5095246;28;20099;-51
2022/11/26 03:41:00;;;;;;;2.80;1.40;;;19.80;47.10;;;;;;5094619;28;20032;-51
2022/11/26 03:43:27;;;;;;;1.77;1.40;;;19.80;47.00;;;;;;5095740;28;20083;-51
2022/11/26 03:45:52;;;;;;;1.40;1.27;;;19.80;47.10;;;;;;5093850;28;20542;-49
2022/11/26 03:48:18;;;;;;;2.10;1.13;;;19.80;47.10;;;;;;5095101;28;20040;-51
2022/11/26 03:50:43;;;;;;;2.83;1.77;;;19.80;47.10;;;;;;5095009;28;20066;-52
2022/11/26 03:53:09;;;;;;;3.67;1.50;;;19.80;47.00;;;;;;5094289;28;20036;-52
2022/11/26 03:55:35;;;;;;;2.55;1.50;;;19.80;47.00;;;;;;5076774;28;20463;-50
2022/11/26 03:58:01;;;;;;;1.70;1.50;;;19.80;47.00;;;;;;5094949;28;20086;-51
2022/11/26 04:00:26;;;;;;;3.63;1.67;;;19.70;47.00;;;;;;5094883;28;20086;-54
2022/11/26 04:02:52;;;;;;;1.38;1.27;;;19.70;47.00;;;;;;5093817;28;20033;-49
2022/11/26 04:05:18;;;;;;;2.08;1.38;;;19.70;47.00;;;;;;5091423;28;20044;-50
2022/11/26 04:07:43;;;;;;;2.00;1.30;;;19.70;47.00;;;;;;5074950;28;20036;-53
2022/11/26 04:10:09;;;;;;;3.03;1.30;;;19.70;47.00;;;;;;5074419;28;20045;-52
2022/11/26 04:12:35;;;;;;;2.08;1.60;;;19.70;46.90;;;;;;5074049;28;20127;-52
2022/11/26 04:15:01;;;;;;;2.33;1.45;;;19.70;46.90;;;;;;5074301;28;20049;-50
2022/11/26 04:17:27;;;;;;;3.63;1.58;;;19.70;46.90;;;;;;5074240;28;20050;-51
2022/11/26 04:19:52;;;;;;;2.15;1.17;;;19.70;47.00;;;;;;5073737;28;20141;-49
2022/11/26 04:22:18;;;;;;;1.98;1.42;;;19.70;46.90;;;;;;5056942;28;20036;-49
2022/11/26 04:24:44;;;;;;;2.47;1.55;;;19.70;47.00;;;;;;5073463;28;20036;-51
2022/11/26 04:27:09;;;;;;;2.88;1.42;;;19.70;47.00;;;;;;5074180;28;20036;-51
2022/11/26 04:29:36;;;;;;;1.50;1.10;;;19.70;46.90;;;;;;5073151;28;20476;-49
2022/11/26 04:32:03;;;;;;;2.85;1.27;;;19.60;46.80;;;;;;5074051;28;20119;-52
2022/11/26 04:34:29;;;;;;;1.45;1.23;;;19.70;47.00;;;;;;5074578;28;20055;-52
2022/11/26 04:36:55;;;;;;;2.22;1.30;;;19.60;46.80;;;;;;5073997;28;20036;-53
2022/11/26 04:39:21;;;;;;;2.47;1.38;;;19.60;46.90;;;;;;5072783;28;20131;-49
2022/11/26 04:41:46;;;;;;;3.08;1.88;;;19.60;46.80;;;;;;5073706;28;20036;-51
2022/11/26 04:44:12;;;;;;;2.45;1.35;;;19.60;46.80;;;;;;5073847;28;20037;-49
2022/11/26 04:46:38;;;;;;;2.33;1.58;;;19.60;46.80;;;;;;5073896;28;20037;-51
2022/11/26 04:49:04;;;;;;;2.92;1.60;;;19.60;46.80;;;;;;5072667;28;20126;-51
2022/11/26 04:51:29;;;;;;;2.60;1.40;;;19.60;46.80;;;;;;5072265;28;20050;-48
2022/11/26 04:53:55;;;;;;;2.67;1.50;;;19.60;46.80;;;;;;5072611;28;20040;-51
2022/11/26 04:56:21;;;;;;;2.63;1.40;;;19.50;46.70;;;;;;5072792;28;20043;-50
2022/11/26 04:58:47;;;;;;;3.65;1.40;;;19.50;46.70;;;;;;5074321;28;20043;-51
2022/11/26 05:01:12;;;;;;;2.17;1.40;;;19.50;46.80;;;;;;5072449;28;20044;-49
2022/11/26 05:03:38;;;;;;;3.50;1.48;;;19.50;46.70;;;;;;5073599;28;20185;-49
2022/11/26 05:06:04;;;;;;;2.78;1.33;;;19.50;46.70;;;;;;5072743;28;20041;-50
2022/11/26 05:08:29;;;;;;;3.05;1.60;;;19.50;46.80;;;;;;5074217;28;20429;-52
2022/11/26 05:10:57;;;;;;;2.45;1.48;;;19.50;46.80;;;;;;5074183;28;20093;-52
2022/11/26 05:13:23;;;;;;;1.77;1.23;;;19.50;46.80;;;;;;5073389;28;20040;-52
2022/11/26 05:15:48;;;;;;;2.65;1.38;;;19.50;47.50;;;;;;5074123;28;20033;-52
2022/11/26 05:18:15;;;;;;;3.78;1.60;;;19.50;46.80;;;;;;5055795;28;20106;-52
2022/11/26 05:20:40;;;;;;;2.47;1.27;;;19.40;46.80;;;;;;5073682;28;20060;-50
2022/11/26 05:23:06;;;;;;;2.47;1.60;;;19.40;46.80;;;;;;5073416;28;20033;-50
2022/11/26 05:25:31;;;;;;;2.40;1.40;;;19.50;46.80;;;;;;5073526;28;20040;-49
2022/11/26 05:27:57;;;;;;;3.22;1.50;;;19.40;46.80;;;;;;5072315;28;20073;-49
2022/11/26 05:30:23;;;;;;;2.95;1.60;;;19.40;46.80;;;;;;5073200;28;20044;-49
2022/11/26 05:32:48;;;;;;;2.85;1.20;;;19.40;46.80;;;;;;5073397;28;20068;-48
2022/11/26 05:35:14;;;;;;;1.83;1.40;;;19.40;46.80;;;;;;5073381;28;20066;-48
2022/11/26 05:37:40;;;;;;;1.85;1.38;;;19.40;46.80;;;;;;5072292;28;20048;-51
2022/11/26 05:40:07;;;;;;;1.65;1.30;;;19.40;46.80;;;;;;5073203;28;20042;-51
2022/11/26 05:42:33;;;;;;;1.58;1.30;;;19.40;46.80;;;;;;5071861;28;20111;-51
2022/11/26 05:44:59;;;;;;;2.92;1.52;;;19.40;46.80;;;;;;5073167;28;20444;-51
2022/11/26 05:47:24;;;;;;;2.58;1.40;;;19.30;46.70;;;;;;5072322;28;20044;-49
2022/11/26 05:49:50;;;;;;;2.33;1.60;;;19.30;46.80;;;;;;5073861;28;20063;-51
2022/11/26 05:52:16;;;;;;;2.97;1.77;;;19.30;46.80;;;;;;5073201;28;20032;-49
2022/11/26 05:54:42;;;;;;;4.22;1.23;;;19.30;46.80;;;;;;5072876;28;20076;-50
2022/11/26 05:57:07;;;;;;;2.65;1.50;;;19.30;46.80;;;;;;5072243;28;20048;-50
2022/11/26 05:59:33;;;;;;;2.15;1.45;;;19.30;46.80;;;;;;5073479;28;20040;-50
2022/11/26 06:01:59;;;;;;;2.38;1.48;;;19.30;46.80;;;;;;5073339;28;20083;-50
2022/11/26 06:04:24;;;;;;;3.00;1.45;;;19.30;46.80;;;;;;5075278;28;20044;-50
2022/11/26 06:06:50;;;;;;;2.65;1.40;;;19.30;46.80;;;;;;5076761;28;20050;-48
2022/11/26 06:09:15;;;;;;;2.40;1.40;;;19.30;46.80;;;;;;5076790;28;20495;-48
2022/11/26 06:11:41;;;;;;;2.22;1.30;;;19.30;46.80;;;;;;5075742;28;20040;-52
2022/11/26 06:14:09;;;;;;;2.88;1.33;;;19.30;46.80;;;;;;5076663;28;20089;-51
2022/11/26 06:16:35;;;;;;;2.00;1.60;;;19.20;46.70;;;;;;5076587;28;20081;-49
2022/11/26 06:19:00;;;;;;;2.08;1.52;;;19.20;46.70;;;;;;5076210;28;20040;-50
2022/11/26 06:21:26;;;;;;;5.13;1.75;;;19.20;46.90;;;;;;5075593;28;20060;-52
2022/11/26 06:23:52;;;;;;;3.97;2.10;;;19.20;46.90;;;;;;5076396;28;20380;-50
2022/11/26 06:26:17;;;;;;;2.85;1.65;;;19.30;47.10;;;;;;5076403;28;20094;-51
2022/11/26 06:28:43;;;;;;;3.28;1.30;;;19.70;47.00;;;;;;5075181;28;20044;-49
2022/11/26 06:31:09;;;;;;;3.25;1.63;;;20.20;46.10;;;;;;5076604;28;20034;-52
2022/11/26 06:33:36;;;;;;;3.42;1.52;;;20.80;45.10;;;;;;5076267;28;20043;-50
2022/11/26 06:36:03;;;;;;;3.17;1.50;;;21.40;44.10;;;;;;5075339;28;20058;-51
2022/11/26 06:38:29;;;;;;;3.00;1.27;;;21.90;43.20;;;;;;5076755;28;20040;-49
2022/11/26 06:41:03;;;;;;;2.25;1.30;;;22.10;42.70;;;;;;5076647;28;20041;-48
2022/11/26 06:43:29;;;;;;;3.58;1.40;;;22.10;42.70;;;;;;5076041;28;20040;-48
2022/11/26 06:46:03;;;;;;;3.17;1.55;;;22.00;42.80;;;;;;5075056;28;20071;-50
2022/11/26 06:48:29;;;;;;;3.17;1.67;;;22.00;43.00;;;;;;5075150;28;20089;-48
2022/11/26 06:50:55;;;;;;;3.92;1.58;;;22.00;43.10;;;;;;5076038;28;20040;-50
2022/11/26 06:53:21;;;;;;;6.05;1.80;;;22.00;43.10;;;;;;5074685;28;20048;-52
2022/11/26 06:55:46;;;;;;;3.78;1.40;;;21.90;43.10;;;;;;5076405;28;20066;-52
2022/11/26 06:58:13;;;;;;;1.75;1.52;;;21.80;43.20;;;;;;5075876;28;20040;-51
2022/11/26 07:00:40;;;;;;;2.88;1.40;;;21.70;43.40;;;;;;5074642;28;20166;-51
2022/11/26 07:03:06;;;;;;;2.92;1.40;;;21.60;43.60;;;;;;5075329;28;20532;-49
2022/11/26 07:05:34;;;;;;;1.90;1.65;;;21.50;43.70;;;;;;5075655;28;20175;-51
2022/11/26 07:08:00;;;;;;;2.42;1.85;;;21.50;43.80;;;;;;5057987;28;20098;-51
2022/11/26 07:10:25;;;;;;;3.83;1.55;;;21.50;43.80;;;;;;5075609;28;20044;-49
2022/11/26 07:12:51;;;;;;;2.17;1.52;;;21.50;43.80;;;;;;5075875;28;20122;-48
2022/11/26 07:15:17;;;;;;;2.65;1.55;;;21.50;43.90;;;;;;5073567;28;20036;-51
2022/11/26 07:17:42;;;;;;;4.55;1.70;;;21.40;43.90;;;;;;5057864;28;20074;-48
2022/11/26 07:20:08;;;;;;;4.80;1.95;;;21.50;44.00;;;;;;5058128;28;20059;-50
2022/11/26 07:22:34;;;;;;;2.65;1.80;;;21.40;43.90;;;;;;5075893;28;20110;-52
2022/11/26 07:25:00;;;;;;;3.30;1.85;;;21.40;43.90;;;;;;5075289;28;20045;-49
2022/11/26 07:27:25;;;;;;;3.40;1.70;;;21.50;44.00;;;;;;5074249;28;20124;-50
2022/11/26 07:29:51;;;;;;;3.75;1.48;;;21.50;44.60;;;;;;5075176;28;20040;-51
2022/11/26 07:32:17;;;;;;;3.83;1.88;;;21.50;43.90;;;;;;5074428;28;20040;-49
2022/11/26 07:34:43;;;;;;;5.38;1.83;;;21.50;43.90;;;;;;5075906;28;20082;-49
2022/11/26 07:37:08;;;;;;;5.80;1.88;;;21.50;43.80;;;;;;5073818;28;20401;-52
2022/11/26 07:39:34;;;;;;;4.35;1.85;;;21.50;43.80;;;;;;5057417;28;20044;-51
2022/11/26 07:42:00;;;;;;;5.72;1.77;;;21.50;43.70;;;;;;5074577;28;20479;-51
2022/11/26 07:44:25;;;;;;;2.42;1.60;;;21.50;43.80;;;;;;5074755;28;20044;-52
2022/11/26 07:46:51;;;;;;;4.65;2.00;;;21.50;43.70;;;;;;5074535;28;20033;-50
2022/11/26 07:49:17;;;;;;;3.38;1.70;;;21.50;43.90;;;;;;5074809;28;20082;-49
2022/11/26 07:51:42;;;;;;;3.25;1.77;;;21.50;43.90;;;;;;5074752;28;20123;-48
2022/11/26 07:54:08;;;;;;;5.18;1.90;;;21.50;43.90;;;;;;5074798;28;20119;-48
2022/11/26 07:56:34;;;;;;;5.28;1.85;;;21.50;43.90;;;;;;5074635;28;20072;-48
2022/11/26 07:59:01;;;;;;;4.63;2.00;;;21.50;43.80;;;;;;5074614;28;20033;-49
2022/11/26 08:01:28;;;;;;;4.00;2.00;;;21.50;43.80;;;;;;5073356;28;20051;-52
2022/11/26 08:03:54;;;;;;;2.20;1.70;;;21.50;43.80;;;;;;5074422;28;20036;-51
2022/11/26 08:06:23;;;;;;;3.75;2.00;;;21.50;43.90;;;;;;5074472;28;20044;-50
2022/11/26 08:08:49;;;;;;;3.75;2.08;;;21.50;44.00;;;;;;5071300;28;20055;-50
2022/11/26 08:11:14;;;;;;;5.80;2.40;;;21.60;44.00;;;;;;5074421;28;20044;-49
2022/11/26 08:13:41;;;;;;;4.47;2.08;;;21.50;44.00;;;;;;5070561;28;20044;-51
2022/11/26 08:16:07;;;;;;;5.00;2.50;;;21.60;44.00;;;;;;5073615;28;20083;-49
2022/11/26 08:18:33;;;;;;;3.97;2.03;;;21.60;44.00;;;;;;5057178;28;20080;-51
2022/11/26 08:20:59;;;;;;;2.53;1.92;;;21.60;44.00;;;;;;5074204;28;20472;-51
2022/11/26 08:23:27;;;;;;;5.03;2.20;;;21.60;44.00;;;;;;5074378;28;20055;-52
2022/11/26 08:25:53;;;;;;;4.20;2.03;;;21.60;44.00;;;;;;5074100;28;20047;-51
2022/11/26 08:28:18;;;;;;;4.78;2.20;;;21.60;44.00;;;;;;5074002;28;20037;-51
2022/11/26 08:30:45;;;;;;;4.18;2.15;;;21.60;44.00;;;;;;5074134;28;20047;-51
2022/11/26 08:33:11;;;;;;;3.38;2.40;;;21.60;44.00;;;;;;5072874;28;20041;-48
2022/11/26 08:35:37;;;;;;;3.80;2.30;;;21.60;44.00;;;;;;5074058;28;20097;-49
2022/11/26 08:38:03;;;;;;;5.32;2.30;;;21.60;44.00;;;;;;5074028;28;20045;-50
2022/11/26 08:40:29;;;;;;;3.58;2.20;;;21.60;44.00;;;;;;5073992;28;20037;-51
2022/11/26 08:42:55;;;;;;;4.25;2.22;;;21.60;44.10;;;;;;5073814;28;20044;-52
2022/11/26 08:45:21;;;;;;;5.78;2.20;;;21.60;44.10;;;;;;5089152;28;20089;-52
2022/11/26 08:47:47;;;;;;;4.40;2.50;;;21.60;44.10;;;;;;5073847;28;20036;-48
2022/11/26 08:50:13;;;;;;;6.68;2.30;;;21.60;44.10;;;;;;5073821;28;20040;-51
2022/11/26 08:52:39;;;;;;;6.15;2.63;;;21.60;44.00;;;;;;5073793;28;20047;-48
2022/11/26 08:55:05;;;;;;;4.95;2.63;;;21.60;44.10;;;;;;5073787;28;20036;-49
2022/11/26 08:57:30;;;;;;;3.65;2.25;;;21.60;44.00;;;;;;5072884;28;20040;-50
2022/11/26 08:59:56;;;;;;;4.30;2.45;;;21.60;44.00;;;;;;5072236;28;20036;-49
2022/11/26 09:02:22;;;;;;;5.60;2.70;;;21.60;44.00;;;;;;5072477;28;20032;-50
2022/11/26 09:04:48;;;;;;;4.88;2.65;;;21.60;44.00;;;;;;5073676;28;20036;-49
2022/11/26 09:07:14;;;;;;;3.05;2.55;;;21.60;44.00;;;;;;5073300;28;20046;-52
2022/11/26 09:09:40;;;;;;;7.35;2.30;;;21.60;44.00;;;;;;5073344;28;20090;-49
2022/11/26 09:12:06;;;;;;;9.90;3.20;;;21.60;44.20;;;;;;5073770;28;20052;-50
2022/11/26 09:14:38;;;;;;;7.63;2.88;;;21.60;44.20;;;;;;5072681;28;20076;-51
2022/11/26 09:17:04;;;;;;;8.55;2.95;;;21.60;44.30;;;;;;5074394;28;20044;-50
2022/11/26 09:19:30;;;;;;;8.57;3.10;;;21.60;44.40;;;;;;5073556;28;20082;-48
2022/11/26 09:21:57;;;;;;;11.13;3.40;;;21.50;44.50;;;;;;5073621;28;20048;-48
2022/11/26 09:24:22;;;;;;;9.65;3.45;;;21.60;44.80;;;;;;5072360;28;20053;-51
2022/11/26 09:26:48;;;;;;;9.73;2.85;;;21.60;45.10;;;;;;5073294;28;20050;-51
2022/11/26 09:29:16;;;;;;;6.30;2.88;;;21.60;45.40;;;;;;5073472;28;20040;-51
2022/11/26 09:31:44;;;;;;;10.05;3.25;;;21.60;45.60;;;;;;5073451;28;20032;-48
2022/11/26 09:34:10;;;;;;;9.93;3.08;;;21.70;45.60;;;;;;5055997;28;20072;-50
2022/11/26 09:36:36;;;;;;;6.53;3.05;;;21.70;45.60;;;;;;5073072;28;20069;-51
2022/11/26 09:39:02;;;;;;;8.15;2.88;;;21.70;45.60;;;;;;5074983;28;20040;-50
2022/11/26 09:41:39;;;;;;;6.03;2.85;;;21.70;45.70;;;;;;5078071;28;20059;-49
2022/11/26 09:44:14;;;;;;;6.05;3.10;;;21.70;45.70;;;;;;5077973;28;20036;-48
2022/11/26 09:46:57;;;;;;;9.10;2.92;;;21.70;45.70;;;;;;5076324;28;20476;-49
2022/11/26 09:49:24;;;;;;;10.45;3.50;;;21.70;45.80;;;;;;5076200;28;20054;-49
2022/11/26 09:51:53;;;;;;;4.97;3.10;;;21.70;46.00;;;;;;5077072;28;20105;-50
2022/11/26 09:54:22;;;;;;;8.40;3.42;;;21.70;46.00;;;;;;5076954;28;20075;-50
2022/11/26 09:56:52;;;;;;;7.30;3.78;;;21.70;46.00;;;;;;5075381;28;20131;-49
2022/11/26 09:59:19;;;;;;;6.53;3.65;;;21.70;46.00;;;;;;5077070;28;20449;-49
2022/11/26 10:01:45;;;;;;;7.38;3.60;;;21.70;46.10;;;;;;5075845;28;20094;-51
2022/11/26 10:04:22;;;;;;;6.20;3.80;;;21.70;46.10;;;;;;5076880;28;20048;-47
2022/11/26 10:07:13;;;;;;;9.55;4.07;;;21.70;46.20;;;;;;5077391;28;20086;-52
2022/11/26 10:10:16;;;;;;;10.23;3.90;;;21.70;46.20;;;;;;5075451;28;20047;-52
2022/11/26 10:12:41;;;;;;;8.05;4.20;;;21.70;46.40;;;;;;5094594;28;20050;-48
2022/11/26 10:15:40;;;;;;;11.43;4.20;;;21.70;46.60;;;;;;5096902;28;20371;-49
2022/11/26 10:18:32;;;;;;;9.00;4.50;;;21.70;47.00;;;;;;5085238;28;20051;-51
2022/11/26 10:21:24;;;;;;;7.07;4.13;;;21.70;46.90;;;;;;5097839;28;20047;-50
2022/11/26 10:23:56;;;;;;;9.90;4.13;;;21.70;47.20;;;;;;5096744;28;20036;-50
2022/11/26 10:26:33;;;;;;;7.57;3.83;;;21.70;47.00;;;;;;5095784;28;20101;-48
2022/11/26 10:29:23;;;;;;;9.00;4.75;;;21.80;47.00;;;;;;5096777;28;20108;-50
2022/11/26 10:31:53;;;;;;;6.38;3.92;;;21.80;47.10;;;;;;5096044;28;20032;-48
2022/11/26 10:34:29;;;;;;;7.07;4.32;;;21.80;47.10;;;;;;5095619;28;20048;-49
2022/11/26 10:36:55;;;;;;;6.47;4.35;;;21.80;47.00;;;;;;5096593;28;20040;-51
2022/11/26 10:39:21;;;;;;;8.00;4.30;;;21.80;47.00;;;;;;5302841;22;20075;-58
2022/11/26 10:41:46;;;;;;;8.52;4.65;;;21.80;47.00;;;;;;5054645;28;20109;-59
2022/11/26 10:44:35;;;;;;;7.53;4.72;;;21.90;47.00;;;;;;5054571;28;20170;-59
2022/11/26 10:47:28;;;;;;;7.85;4.57;;;21.80;46.80;;;;;;5053863;28;20487;-59
2022/11/26 10:50:01;;;;;;;8.43;4.40;;;21.90;46.80;;;;;;5055396;28;20075;-58
2022/11/26 10:52:29;;;;;;;9.30;5.10;;;21.80;46.80;;;;;;5054097;28;20051;-59
2022/11/26 10:55:23;;;;;;;7.82;4.90;;;21.80;46.90;;;;;;5056262;28;20398;-59
2022/11/26 10:58:04;;;;;;;9.82;4.85;;;21.80;46.90;;;;;;5054178;28;20511;-59
2022/11/26 11:01:02;;;;;;;10.93;4.85;;;21.80;47.00;;;;;;5044946;28;20080;-59
2022/11/26 11:03:28;;;;;;;7.93;4.57;;;21.80;47.00;;;;;;5054582;28;20053;-59
2022/11/26 11:06:19;;;;;;;9.57;4.72;;;21.80;47.00;;;;;;5053791;28;20376;-59
2022/11/26 11:08:47;;;;;;;16.27;5.22;;;21.80;47.10;;;;;;5053458;28;20040;-59
2022/11/26 11:11:25;;;;;;;11.85;4.82;;;21.80;47.10;;;;;;5053142;28;20037;-59
2022/11/26 11:13:51;;;;;;;10.43;4.60;;;21.80;47.30;;;;;;5054770;28;20047;-58
2022/11/26 11:16:24;;;;;;;8.63;4.57;;;21.80;47.40;;;;;;5054924;28;20044;-59
2022/11/26 11:18:59;;;;;;;8.63;4.43;;;21.80;47.50;;;;;;5054234;28;20123;-58
2022/11/26 11:21:33;;;;;;;8.00;4.25;;;21.80;47.50;;;;;;5043244;28;20519;-59
2022/11/26 11:24:12;;;;;;;9.35;4.38;;;21.80;47.40;;;;;;5053337;28;20081;-60
2022/11/26 11:26:46;;;;;;;7.57;4.32;;;21.80;47.50;;;;;;5054482;28;20116;-58
2022/11/26 11:29:32;;;;;;;8.43;3.97;;;21.80;47.90;;;;;;5051722;28;20365;-58
2022/11/26 11:32:00;;;;;;;8.38;4.00;;;21.90;48.40;;;;;;5053765;28;20925;-59
2022/11/26 11:34:36;;;;;;;8.32;4.18;;;21.80;48.50;;;;;;5052184;28;20089;-59
2022/11/26 11:37:15;;;;;;;7.60;4.20;;;21.80;48.90;;;;;;5053402;28;20460;-59
2022/11/26 11:39:42;;;;;;;6.47;4.88;;;21.80;49.10;;;;;;5050369;28;20395;-59
2022/11/26 11:42:28;;;;;;;14.35;4.65;;;21.80;49.10;;;;;;5052994;28;20550;-58
2022/11/26 11:44:55;;;;;;;7.75;3.67;;;21.80;49.40;;;;;;5051941;28;20044;-59
2022/11/26 11:47:35;;;;;;;8.32;4.15;;;21.80;49.30;;;;;;5050519;28;20047;-58
2022/11/26 11:50:04;;;;;;;8.27;4.07;;;21.80;49.30;;;;;;5052339;28;20036;-58
2022/11/26 11:52:53;;;;;;;8.38;4.07;;;21.80;49.30;;;;;;5052083;28;20052;-59
2022/11/26 11:55:31;;;;;;;10.43;4.72;;;21.80;49.40;;;;;;5056022;28;20128;-59
2022/11/26 11:58:37;;;;;;;12.23;4.10;;;21.80;49.40;;;;;;5052927;28;20044;-58
2022/11/26 12:01:10;;;;;;;9.70;4.00;;;21.80;49.50;;;;;;5053229;28;20518;-58
2022/11/26 12:03:39;;;;;;;9.00;4.13;;;21.80;49.50;;;;;;5054007;28;20041;-58
2022/11/26 12:06:18;;;;;;;8.77;4.45;;;21.70;49.60;;;;;;5054764;28;20037;-59
2022/11/26 12:09:09;;;;;;;10.50;4.47;;;21.80;49.60;;;;;;5053888;28;20129;-59
2022/11/26 12:11:56;;;;;;;7.15;4.28;;;21.80;49.70;;;;;;5026012;28;20052;-59
2022/11/26 12:14:33;;;;;;;11.65;4.55;;;21.80;49.60;;;;;;5053663;28;20053;-58
2022/11/26 12:17:05;;;;;;;6.47;3.63;;;21.90;49.60;;;;;;5052493;28;20302;-57
2022/11/26 12:19:46;;;;;;;7.80;3.85;;;21.90;49.70;;;;;;5053008;28;20041;-58
2022/11/26 12:22:37;;;;;;;8.65;4.30;;;21.90;49.70;;;;;;5054025;28;20044;-58
2022/11/26 12:25:26;;;;;;;9.35;4.10;;;21.90;49.70;;;;;;5052857;28;20047;-59
2022/11/26 12:28:14;;;;;;;7.60;4.13;;;21.80;49.60;;;;;;5045445;28;20130;-60
2022/11/26 12:31:16;;;;;;;8.57;4.43;;;21.80;49.50;;;;;;5051122;28;20510;-56
2022/11/26 12:33:48;;;;;;;14.02;4.53;;;21.80;49.70;;;;;;5022041;28;20056;-57
2022/11/26 12:36:22;;;;;;;9.15;3.78;;;21.70;49.70;;;;;;5052302;28;20044;-59
2022/11/26 12:38:53;;;;;;;6.70;3.60;;;21.70;49.60;;;;;;5052724;28;20102;-59
2022/11/26 12:41:32;;;;;;;8.50;3.63;;;21.80;49.60;;;;;;5052305;28;20040;-56
2022/11/26 12:44:20;;;;;;;6.13;3.45;;;21.70;49.50;;;;;;5051184;28;20036;-59
2022/11/26 12:47:05;;;;;;;6.97;3.63;;;21.80;49.60;;;;;;5055618;28;20052;-59
2022/11/26 12:49:42;;;;;;;6.80;3.47;;;21.90;49.50;;;;;;5052002;28;20116;-58
2022/11/26 12:52:26;;;;;;;7.00;3.42;;;21.90;49.50;;;;;;5052989;28;20044;-57
2022/11/26 12:55:20;;;;;;;9.75;3.90;;;21.90;49.50;;;;;;5049855;28;20489;-58
2022/11/26 12:57:48;;;;;;;6.60;3.63;;;21.90;49.60;;;;;;5051307;28;20039;-57
2022/11/26 13:00:20;;;;;;;7.25;3.85;;;21.80;49.70;;;;;;5054798;28;20051;-58
2022/11/26 13:02:51;;;;;;;5.88;3.25;;;21.90;49.80;;;;;;5051195;28;20033;-58